This is the latest recevied weather packets stored in our database for station/object IK8SUT-10. If no packets are shown the sender has not sent any weather packets the latest 10 day(s).
| Time | Temp. | Humidity | Pressure | Rain* | Wind** | Luminosity | Snow |
|---|---|---|---|---|---|---|---|
| 1777827656 | 24.44° C | 54% | 1020.2 hPa | - | - | - | - |
| 1777826776 | 23.33° C | 54% | 1020.1 hPa | - | - | - | - |
| 1777825876 | 23.33° C | 54% | 1020.1 hPa | - | - | - | - |
| 1777824975 | 23.33° C | 53% | 1020.2 hPa | - | - | - | - |
| 1777824074 | 23.33° C | 53% | 1020.2 hPa | - | - | - | - |
| 1777823173 | 23.33° C | 53% | 1020 hPa | - | - | - | - |
| 1777822272 | 23.33° C | 53% | 1020.1 hPa | - | - | - | - |
| 1777821372 | 23.33° C | 53% | 1020.1 hPa | - | - | - | - |
| 1777820471 | 23.33° C | 53% | 1020 hPa | - | - | - | - |
| 1777819570 | 23.89° C | 51% | 1020.1 hPa | - | - | - | - |
| 1777818669 | 26.11° C | 47% | 1020.3 hPa | - | - | - | - |
| 1777817768 | 26.67° C | 46% | 1020.3 hPa | - | - | - | - |
| 1777816867 | 25.56° C | 48% | 1020.4 hPa | - | - | - | - |
| 1777815967 | 23.89° C | 52% | 1020.4 hPa | - | - | - | - |
| 1777815066 | 22.78° C | 54% | 1020.6 hPa | - | - | - | - |
| 1777814165 | 22.78° C | 54% | 1020.7 hPa | - | - | - | - |
| 1777813264 | 22.78° C | 55% | 1020.8 hPa | - | - | - | - |
| 1777812363 | 22.78° C | 56% | 1020.9 hPa | - | - | - | - |
| 1777811463 | 22.78° C | 56% | 1021.1 hPa | - | - | - | - |
| 1777810562 | 22.78° C | 57% | 1021.3 hPa | - | - | - | - |
| 1777809661 | 22.78° C | 57% | 1021.3 hPa | - | - | - | - |
| 1777808760 | 22.78° C | 57% | 1021.4 hPa | - | - | - | - |
| 1777807859 | 22.78° C | 57% | 1021.4 hPa | - | - | - | - |
| 1777806959 | 22.78° C | 56% | 1021.5 hPa | - | - | - | - |
| 1777806057 | 23.33° C | 53% | 1021.5 hPa | - | - | - | - |
* Rain since midnight (hover to see other rain measurements)
** Current wind speed in m/s (hover to see current wind gust speed)